Time;durP1;ratioP1;P1;durP2;ratioP2;P2;SDS_P1;SDS_P2;PMS_P1;PMS_P2;Temp;Humidity;BMP_temperature;BMP_pressure;BME280_temperature;BME280_humidity;BME280_pressure;Samples;Min_cycle;Max_cycle;Signal;HPM_P1;HPM_P2
2021/04/27 00:01:51;;;;;;;7.55;4.68;;;;;;;27.91;20.17;94118.47;5084804;28;20056;-50
2021/04/27 00:04:17;;;;;;;6.25;4.25;;;;;;;27.16;21.36;94115.78;5072079;28;20454;-50
2021/04/27 00:06:44;;;;;;;6.38;4.60;;;;;;;26.38;22.13;94107.16;5102074;28;20071;-47
2021/04/27 00:09:11;;;;;;;7.57;4.13;;;;;;;26.36;22.33;94114.81;5104709;28;20052;-46
2021/04/27 00:11:38;;;;;;;8.38;4.43;;;;;;;25.26;23.94;94117.13;5101126;28;20439;-49
2021/04/27 00:14:07;;;;;;;7.85;4.47;;;;;;;26.27;22.58;94111.78;5093729;28;20385;-46
2021/04/27 00:16:35;;;;;;;10.05;4.50;;;;;;;26.25;22.16;94113.31;5098898;28;20056;-46
2021/04/27 00:19:03;;;;;;;8.52;4.70;;;;;;;25.53;23.73;94112.84;5098797;28;20048;-46
2021/04/27 00:21:29;;;;;;;7.10;4.75;;;;;;;28.02;20.31;94112.97;5105381;28;20054;-47
2021/04/27 00:23:57;;;;;;;5.25;4.20;;;;;;;25.03;24.11;94107.59;5098870;28;20331;-57
2021/04/27 00:26:23;;;;;;;7.95;4.50;;;;;;;24.98;24.34;94107.94;5088904;28;20066;-47
2021/04/27 00:28:50;;;;;;;9.23;5.13;;;;;;;25.06;24.23;94112.19;5067550;28;20052;-47
2021/04/27 00:31:17;;;;;;;6.63;5.15;;;;;;;25.27;24.40;94110.63;5078587;28;20447;-47
2021/04/27 00:33:44;;;;;;;6.72;4.70;;;;;;;24.94;24.65;94115.19;5082444;28;20056;-54
2021/04/27 00:36:11;;;;;;;7.70;4.50;;;;;;;25.18;24.35;94113.69;5105638;28;20044;-47
2021/04/27 00:38:38;;;;;;;7.15;4.20;;;;;;;25.13;24.65;94122.84;5098307;28;20044;-47
2021/04/27 00:41:05;;;;;;;7.43;4.50;;;;;;;25.33;24.14;94130.47;5098210;28;20785;-57
2021/04/27 00:43:32;;;;;;;7.15;4.50;;;;;;;25.97;23.34;94125.69;5098038;28;20051;-47
2021/04/27 00:45:59;;;;;;;7.68;4.53;;;;;;;24.84;24.82;94121.31;5105064;28;20040;-48
2021/04/27 00:48:26;;;;;;;6.95;4.28;;;;;;;24.33;25.77;94118.97;5098162;28;20077;-52
2021/04/27 00:50:53;;;;;;;6.95;5.00;;;;;;;24.66;25.37;94099.94;5097949;28;20059;-47
2021/04/27 00:53:19;;;;;;;7.00;4.22;;;;;;;24.87;24.63;94101.84;5098011;28;20469;-48
2021/04/27 00:55:46;;;;;;;6.28;4.40;;;;;;;24.79;25.27;94097.66;5080474;28;20067;-49
2021/04/27 00:58:13;;;;;;;6.53;4.68;;;;;;;24.66;25.67;94093.81;5086201;28;20048;-47
2021/04/27 01:00:41;;;;;;;6.38;4.10;;;;;;;24.65;25.57;94092.28;5043714;28;20044;-48
2021/04/27 01:03:09;;;;;;;7.18;4.40;;;;;;;24.69;25.59;94090.38;5078094;28;20056;-48
2021/04/27 01:05:38;;;;;;;7.18;4.78;;;;;;;24.24;26.03;94092.63;5097054;28;20055;-49
2021/04/27 01:08:20;;;;;;;7.32;4.35;;;;;;;24.85;25.09;94088.09;5097541;28;20059;-55
2021/04/27 01:10:50;;;;;;;7.60;4.80;;;;;;;23.98;26.33;94083.78;5082586;28;20044;-60
2021/04/27 01:13:36;;;;;;;7.38;4.47;;;;;;;24.08;26.41;94092.19;5077553;28;20048;-49
2021/04/27 01:16:04;;;;;;;7.72;4.18;;;;;;;24.65;26.01;94098.41;5084507;28;20052;-49
2021/04/27 01:18:32;;;;;;;6.90;4.63;;;;;;;24.21;26.52;94098.72;5059770;28;20447;-46
2021/04/27 01:21:01;;;;;;;7.63;4.43;;;;;;;24.52;26.02;94087.34;5063248;28;20048;-48
2021/04/27 01:23:55;;;;;;;5.55;3.50;;;;;;;23.73;27.26;94098.94;5079748;28;20047;-48
2021/04/27 01:26:48;;;;;;;7.20;4.47;;;;;;;23.74;27.19;94087.13;5096681;28;20052;-58
2021/04/27 01:29:18;;;;;;;5.57;3.80;;;;;;;24.14;26.84;94080.00;5097111;28;20052;-53
2021/04/27 01:31:46;;;;;;;6.68;3.83;;;;;;;24.28;26.29;94086.16;5104267;28;20331;-47
2021/04/27 01:34:20;;;;;;;4.78;3.67;;;;;;;24.33;26.22;94071.66;5079262;28;20052;-52
2021/04/27 01:36:49;;;;;;;5.05;3.60;;;;;;;24.25;26.88;94075.44;5079437;28;20470;-57
2021/04/27 01:39:16;;;;;;;7.65;3.88;;;;;;;23.56;27.29;94072.97;5086053;28;20047;-48
2021/04/27 01:41:43;;;;;;;7.05;4.43;;;;;;;24.69;25.28;94077.00;5079188;28;20058;-48
2021/04/27 01:44:11;;;;;;;8.27;4.60;;;;;;;23.50;26.01;94080.53;5078783;28;20048;-48
2021/04/27 01:46:38;;;;;;;6.00;4.03;;;;;;;24.31;25.13;94081.97;5079109;28;20048;-47
2021/04/27 01:49:06;;;;;;;8.77;4.38;;;;;;;24.19;25.28;94082.28;5062590;28;20048;-48
2021/04/27 01:51:38;;;;;;;8.35;4.15;;;;;;;24.31;25.07;94076.63;5063316;28;20056;-61
2021/04/27 01:54:40;;;;;;;8.07;4.88;;;;;;;24.40;25.62;94074.34;5020983;28;20069;-55
2021/04/27 01:57:07;;;;;;;6.43;4.35;;;;;;;24.08;26.15;94068.16;5082083;28;20078;-49
2021/04/27 01:59:34;;;;;;;8.23;4.40;;;;;;;24.14;26.12;94075.41;5103717;28;20070;-46
2021/04/27 02:02:01;;;;;;;9.30;4.60;;;;;;;24.43;25.97;94084.25;5097184;28;20044;-48
2021/04/27 02:04:29;;;;;;;8.90;5.40;;;;;;;28.87;20.29;94082.19;5074944;28;20431;-58
2021/04/27 02:07:25;;;;;;;7.18;5.00;;;;;;;24.56;25.93;94090.78;5064478;28;20390;-55
2021/04/27 02:09:53;;;;;;;5.93;4.57;;;;;;;24.65;26.23;94086.94;5058582;28;20055;-46
2021/04/27 02:12:27;;;;;;;7.22;4.38;;;;;;;26.08;24.32;94088.19;5058821;28;20044;-57
2021/04/27 02:14:55;;;;;;;6.28;4.38;;;;;;;25.99;23.14;94074.44;5086286;28;20426;-47
2021/04/27 02:17:42;;;;;;;6.60;3.97;;;;;;;25.02;24.39;94068.63;5095547;28;20394;-47
2021/04/27 02:20:09;;;;;;;5.18;3.63;;;;;;;26.79;22.56;94086.94;5096168;28;20040;-57
2021/04/27 02:23:00;;;;;;;6.55;4.18;;;;;;;26.82;22.38;94075.44;5096057;28;20048;-45
2021/04/27 02:25:49;;;;;;;8.02;4.00;;;;;;;28.73;20.61;94067.03;5075727;28;20467;-47
2021/04/27 02:28:19;;;;;;;6.38;3.67;;;;;;;26.70;22.52;94068.63;5042251;28;20055;-47
2021/04/27 02:30:47;;;;;;;8.73;4.70;;;;;;;24.73;25.76;94073.22;5083078;28;20056;-47
2021/04/27 02:33:15;;;;;;;5.97;4.00;;;;;;;28.49;20.93;94052.81;5083030;28;20059;-46
2021/04/27 02:35:43;;;;;;;5.15;3.95;;;;;;;26.70;23.61;94057.91;5057606;28;20370;-46
2021/04/27 02:38:20;;;;;;;6.82;3.90;;;;;;;27.64;21.97;94056.66;5058256;28;20048;-46
2021/04/27 02:40:52;;;;;;;5.93;3.70;;;;;;;27.83;21.48;94060.63;5075782;28;20070;-48
2021/04/27 02:43:20;;;;;;;4.97;3.47;;;;;;;27.06;22.37;94057.63;5076091;28;20048;-47
2021/04/27 02:45:47;;;;;;;5.18;3.60;;;;;;;25.94;23.84;94056.88;5082430;28;20106;-46
2021/04/27 02:48:34;;;;;;;8.82;3.92;;;;;;;25.59;24.44;94055.09;5060070;28;20356;-45
2021/04/27 02:51:10;;;;;;;6.63;3.72;;;;;;;25.07;24.96;94052.19;5085081;28;20398;-47
2021/04/27 02:53:52;;;;;;;5.53;3.60;;;;;;;25.62;24.28;94058.91;5074143;28;20052;-47
2021/04/27 02:56:19;;;;;;;6.53;4.13;;;;;;;24.87;25.43;94049.13;5075251;28;20055;-46
2021/04/27 02:58:50;;;;;;;5.10;3.90;;;;;;;26.49;23.17;94053.47;5079300;28;20374;-47
2021/04/27 03:01:18;;;;;;;4.93;3.55;;;;;;;27.60;22.06;94064.72;5102919;28;20350;-50
2021/04/27 03:03:45;;;;;;;7.53;4.00;;;;;;;25.30;25.04;94061.69;5074690;28;20320;-46
2021/04/27 03:06:12;;;;;;;6.60;4.25;;;;;;;23.44;27.68;94065.25;5075512;28;20056;-47
2021/04/27 03:08:59;;;;;;;5.07;4.10;;;;;;;25.85;24.30;94079.88;5079773;28;20086;-47
2021/04/27 03:11:27;;;;;;;7.35;3.65;;;;;;;27.43;21.65;94081.00;5085496;28;20060;-46
2021/04/27 03:13:54;;;;;;;5.45;3.90;;;;;;;27.33;22.18;94088.03;5058058;28;20083;-55
2021/04/27 03:16:23;;;;;;;7.47;3.80;;;;;;;26.39;23.49;94073.09;5058047;28;20059;-51
2021/04/27 03:18:50;;;;;;;7.07;4.85;;;;;;;26.64;22.79;94070.22;5060814;28;20047;-47
2021/04/27 03:21:18;;;;;;;8.43;4.35;;;;;;;24.05;26.23;94083.03;5102057;28;20036;-48
2021/04/27 03:23:47;;;;;;;7.10;3.97;;;;;;;26.89;22.45;94084.19;5063925;28;20055;-46
2021/04/27 03:26:14;;;;;;;5.53;3.70;;;;;;;28.24;20.82;94068.53;5077493;28;20041;-46
2021/04/27 03:28:50;;;;;;;7.80;4.57;;;;;;;25.22;24.34;94071.63;5060181;28;20058;-46
2021/04/27 03:31:19;;;;;;;7.50;4.68;;;;;;;24.69;25.22;94063.66;5102479;28;20059;-46
2021/04/27 03:33:47;;;;;;;7.88;3.72;;;;;;;27.27;21.83;94062.78;5077349;28;20078;-52
2021/04/27 03:36:14;;;;;;;8.88;4.57;;;;;;;22.73;27.57;94071.66;5077880;28;20044;-55
2021/04/27 03:38:43;;;;;;;5.97;4.22;;;;;;;24.29;26.28;94060.97;5077032;28;20055;-53
2021/04/27 03:41:10;;;;;;;5.82;4.03;;;;;;;22.47;28.67;94061.19;5102065;28;20056;-46
2021/04/27 03:43:37;;;;;;;7.82;4.20;;;;;;;22.36;29.14;94062.97;5081025;28;20043;-47
2021/04/27 03:46:04;;;;;;;7.82;4.57;;;;;;;23.22;27.72;94053.72;5095072;28;20048;-54
2021/04/27 03:48:31;;;;;;;7.50;4.57;;;;;;;22.80;28.30;94059.53;5061009;28;20048;-46
2021/04/27 03:51:00;;;;;;;6.25;4.35;;;;;;;22.95;28.29;94066.53;5098989;28;20060;-58
2021/04/27 03:53:43;;;;;;;7.10;4.30;;;;;;;22.20;29.08;94070.47;5082876;28;20048;-47
2021/04/27 03:56:16;;;;;;;7.45;4.38;;;;;;;23.58;27.12;94065.34;5061310;28;20446;-47
2021/04/27 03:58:43;;;;;;;6.43;4.13;;;;;;;22.10;29.20;94083.28;5062352;28;20053;-46
2021/04/27 04:01:10;;;;;;;6.47;4.18;;;;;;;21.84;29.95;94099.31;5095419;28;20470;-48
2021/04/27 04:03:39;;;;;;;5.88;4.40;;;;;;;22.95;28.77;94087.84;5061539;28;20056;-46
2021/04/27 04:06:07;;;;;;;9.00;4.28;;;;;;;22.25;29.38;94094.09;5061069;28;20056;-47
2021/04/27 04:08:54;;;;;;;6.38;4.07;;;;;;;23.31;28.32;94100.25;5069262;28;20395;-52
2021/04/27 04:11:25;;;;;;;8.45;4.25;;;;;;;23.03;29.20;94105.41;5077290;28;20060;-46
2021/04/27 04:13:52;;;;;;;4.65;3.08;;;;;;;28.80;21.68;94099.19;5080768;28;20052;-44
2021/04/27 04:16:20;;;;;;;5.65;3.28;;;;;;;31.10;18.84;94086.91;5089297;28;20045;-45
2021/04/27 04:18:49;;;;;;;5.00;3.55;;;;;;;32.61;17.83;94095.16;5079824;28;20044;-48
2021/04/27 04:21:17;;;;;;;4.45;3.08;;;;;;;33.39;17.01;94098.06;5088080;28;20051;-50
2021/04/27 04:24:08;;;;;;;9.35;3.50;;;;;;;34.37;15.60;94099.69;5070490;28;20063;-51
2021/04/27 04:26:35;;;;;;;3.85;3.00;;;;;;;35.14;15.02;94093.16;5097761;28;20351;-53
2021/04/27 04:29:25;;;;;;;5.18;3.55;;;;;;;31.16;17.13;94071.75;5083052;28;20048;-51
2021/04/27 04:32:13;;;;;;;5.47;3.97;;;;;;;31.45;17.41;94052.09;5094125;28;20056;-51
2021/04/27 04:34:59;;;;;;;7.20;4.35;;;;;;;28.20;20.86;94052.44;5097998;28;20441;-47
2021/04/27 04:37:44;;;;;;;7.18;5.35;;;;;;;27.61;22.19;94060.09;5098129;28;20040;-53
2021/04/27 04:40:40;;;;;;;10.05;6.68;;;;;;;27.27;23.57;94063.53;5025586;28;20046;-45
2021/04/27 04:43:43;;;;;;;8.80;6.60;;;;;;;27.44;23.59;94056.47;5001076;28;20054;-47
2021/04/27 04:46:28;;;;;;;11.77;5.72;;;;;;;27.78;22.90;94064.50;5091316;28;20059;-48
2021/04/27 04:49:14;;;;;;;5.60;4.80;;;;;;;30.42;19.58;94071.53;5090082;28;20049;-50
2021/04/27 04:52:01;;;;;;;8.88;5.57;;;;;;;25.52;25.77;94063.16;5048861;28;20060;-49
2021/04/27 04:55:00;;;;;;;10.70;6.35;;;;;;;24.26;28.16;94055.59;5057424;28;20060;-46
2021/04/27 04:57:47;;;;;;;10.45;6.05;;;;;;;26.35;25.90;94049.00;5045689;28;20052;-48
2021/04/27 05:00:18;;;;;;;10.82;6.57;;;;;;;27.87;24.13;94047.94;5067321;28;20044;-49
2021/04/27 05:03:03;;;;;;;10.07;6.45;;;;;;;27.85;23.80;94051.00;5078480;28;20052;-48
2021/04/27 05:05:49;;;;;;;7.90;6.07;;;;;;;25.71;26.50;94057.34;5082987;28;20044;-49
2021/04/27 05:08:42;;;;;;;8.85;6.15;;;;;;;25.93;26.14;94073.31;5094781;28;20052;-46
2021/04/27 05:11:27;;;;;;;;;;;;;;;25.21;27.70;94070.88;5097730;28;20347;-50
2021/04/27 05:13:57;;;;;;;9.82;6.05;;;;;;;23.77;30.02;94058.94;5092675;28;19916;-46
2021/04/27 05:16:24;;;;;;;9.20;6.30;;;;;;;24.40;29.09;94049.53;5084347;28;20051;-46
2021/04/27 05:18:51;;;;;;;9.55;6.20;;;;;;;25.68;27.07;94066.16;5077640;28;20052;-46
2021/04/27 05:21:19;;;;;;;8.40;5.82;;;;;;;25.98;26.41;94056.84;5066527;28;20051;-45
2021/04/27 05:23:46;;;;;;;7.55;5.40;;;;;;;25.93;26.81;94049.97;5079335;28;20320;-46
2021/04/27 05:26:14;;;;;;;13.68;6.05;;;;;;;27.84;23.87;94040.66;5079134;28;20059;-47
2021/04/27 05:28:41;;;;;;;9.38;6.32;;;;;;;24.86;27.84;94049.53;5075812;28;20044;-47
2021/04/27 05:31:08;;;;;;;8.73;6.10;;;;;;;24.03;29.55;94039.16;5076978;28;20044;-45
2021/04/27 05:33:35;;;;;;;11.32;6.50;;;;;;;24.46;29.28;94042.66;5081691;28;20051;-47
2021/04/27 05:36:02;;;;;;;9.52;6.30;;;;;;;25.11;28.12;94042.25;5104581;28;20465;-47
2021/04/27 05:38:30;;;;;;;10.45;6.82;;;;;;;24.05;30.26;94028.88;5104263;28;20078;-45
2021/04/27 05:40:56;;;;;;;11.88;6.93;;;;;;;23.90;30.06;94034.16;5097663;28;20048;-47
2021/04/27 05:43:23;;;;;;;10.10;6.63;;;;;;;24.23;30.05;94043.78;5103866;28;20040;-48
2021/04/27 05:45:50;;;;;;;10.40;6.65;;;;;;;25.53;27.28;94045.94;5104375;28;20048;-46
2021/04/27 05:48:17;;;;;;;8.07;5.85;;;;;;;24.67;28.80;94021.28;5080806;28;20039;-48
2021/04/27 05:50:44;;;;;;;12.75;7.32;;;;;;;24.80;28.99;94025.09;5078317;28;20439;-45
2021/04/27 05:53:11;;;;;;;8.45;6.68;;;;;;;23.85;30.22;94031.88;5085784;28;20044;-47
2021/04/27 05:55:40;;;;;;;9.85;6.60;;;;;;;25.90;26.70;94033.94;5097267;28;20052;-46
2021/04/27 05:58:10;;;;;;;8.82;6.30;;;;;;;24.88;28.55;94031.94;5096621;28;20051;-47
2021/04/27 06:00:38;;;;;;;12.00;7.03;;;;;;;23.58;30.00;94033.31;5096952;28;20051;-47
2021/04/27 06:03:05;;;;;;;8.55;6.75;;;;;;;24.08;29.51;94012.09;5103762;28;20040;-46
2021/04/27 06:05:32;;;;;;;11.57;6.35;;;;;;;25.70;27.08;94026.38;5075851;28;20048;-46
2021/04/27 06:07:59;;;;;;;12.18;7.45;;;;;;;24.60;28.98;94031.97;5076728;28;20055;-45
2021/04/27 06:10:26;;;;;;;12.30;6.25;;;;;;;24.38;28.96;94039.22;5083368;28;20055;-47
2021/04/27 06:12:53;;;;;;;13.57;7.18;;;;;;;24.97;28.04;94034.22;5083495;28;20467;-45
2021/04/27 06:15:20;;;;;;;10.07;6.72;;;;;;;24.64;28.54;94038.09;5076500;28;20366;-44
2021/04/27 06:17:47;;;;;;;12.88;6.65;;;;;;;28.36;24.04;94053.78;5076097;28;20055;-47
2021/04/27 06:20:15;;;;;;;10.30;6.57;;;;;;;27.15;25.23;94060.59;5076381;28;20059;-46
2021/04/27 06:22:41;;;;;;;10.02;6.43;;;;;;;26.22;26.23;94052.50;5100892;28;20032;-49
2021/04/27 06:25:10;;;;;;;10.02;5.45;;;;;;;26.91;25.58;94054.28;5095652;28;20048;-46
2021/04/27 06:27:37;;;;;;;9.10;6.10;;;;;;;26.71;25.91;94051.38;5092843;28;20066;-46
2021/04/27 06:30:09;;;;;;;7.82;5.90;;;;;;;26.42;26.02;94051.63;5076252;28;20040;-48
2021/04/27 06:32:36;;;;;;;8.97;6.10;;;;;;;26.53;25.32;94056.13;5075631;28;20048;-48
2021/04/27 06:35:04;;;;;;;11.50;6.00;;;;;;;26.55;25.71;94061.88;5097493;28;20281;-46
2021/04/27 06:37:31;;;;;;;10.07;6.07;;;;;;;27.97;23.78;94049.69;5096319;28;20439;-46
2021/04/27 06:39:58;;;;;;;9.73;6.22;;;;;;;27.89;23.99;94059.03;5085791;28;20455;-46
2021/04/27 06:42:25;;;;;;;8.32;6.15;;;;;;;26.94;24.90;94058.84;5075879;28;20032;-46
2021/04/27 06:44:52;;;;;;;10.20;6.00;;;;;;;27.54;24.21;94060.94;5088815;28;20386;-46
2021/04/27 06:47:19;;;;;;;9.07;6.40;;;;;;;27.70;24.33;94073.81;5102279;28;20071;-46
2021/04/27 06:49:46;;;;;;;9.85;6.03;;;;;;;27.09;24.96;94051.47;5096196;28;20055;-46
2021/04/27 06:52:13;;;;;;;8.80;6.15;;;;;;;27.79;23.66;94055.28;5095688;28;20474;-46
2021/04/27 06:54:40;;;;;;;10.43;6.18;;;;;;;27.77;23.49;94054.19;5095502;28;20044;-46
2021/04/27 06:57:07;;;;;;;10.45;6.47;;;;;;;27.81;23.71;94052.19;5095296;28;20048;-46
2021/04/27 06:59:34;;;;;;;8.60;5.97;;;;;;;27.36;24.75;94057.72;5102500;28;20051;-46
2021/04/27 07:02:03;;;;;;;9.07;5.60;;;;;;;27.93;23.41;94052.44;5102724;28;20039;-48
2021/04/27 07:04:30;;;;;;;9.32;5.63;;;;;;;27.78;23.94;94050.31;5083665;28;20052;-47
2021/04/27 07:06:57;;;;;;;8.65;5.85;;;;;;;27.54;24.08;94050.19;5082349;28;20044;-50
2021/04/27 07:09:24;;;;;;;10.30;5.97;;;;;;;27.52;24.01;94047.16;5090439;28;20481;-45
2021/04/27 07:11:51;;;;;;;8.32;5.70;;;;;;;27.74;23.62;94055.75;5102711;28;20083;-49
2021/04/27 07:14:18;;;;;;;8.35;6.13;;;;;;;27.76;23.69;94044.59;5095403;28;20048;-47
2021/04/27 07:16:44;;;;;;;12.77;6.55;;;;;;;28.01;23.21;94050.41;5084242;28;20048;-46
2021/04/27 07:19:11;;;;;;;7.97;6.00;;;;;;;28.48;22.73;94048.59;5094665;28;20473;-48
2021/04/27 07:21:40;;;;;;;14.35;5.90;;;;;;;27.82;23.48;94049.13;5102017;28;20043;-47
2021/04/27 07:24:08;;;;;;;9.63;5.97;;;;;;;29.28;21.80;94054.22;5102397;28;20052;-51
2021/04/27 07:26:36;;;;;;;7.90;5.10;;;;;;;28.49;22.53;94065.50;5080270;28;20066;-46
2021/04/27 07:29:04;;;;;;;8.20;5.45;;;;;;;28.34;22.58;94058.81;5079643;28;20060;-47
2021/04/27 07:31:31;;;;;;;11.00;5.57;;;;;;;27.48;23.64;94054.50;5087636;28;20059;-47
2021/04/27 07:33:58;;;;;;;9.88;5.97;;;;;;;27.60;23.39;94053.97;5074847;28;20040;-48
2021/04/27 07:36:25;;;;;;;8.45;5.70;;;;;;;27.95;23.00;94046.66;5074607;28;20055;-48
2021/04/27 07:38:52;;;;;;;8.88;5.13;;;;;;;28.42;21.95;94057.53;5084992;28;20036;-51
2021/04/27 07:41:20;;;;;;;10.77;5.65;;;;;;;27.85;22.66;94063.69;5101276;28;20043;-49
2021/04/27 07:43:47;;;;;;;10.40;6.25;;;;;;;29.22;21.52;94059.31;5081849;28;20052;-47
2021/04/27 07:46:13;;;;;;;9.77;5.85;;;;;;;30.12;20.39;94053.72;5081996;28;20382;-46
2021/04/27 07:48:41;;;;;;;6.65;5.13;;;;;;;29.66;20.59;94046.56;5082585;28;20358;-47
2021/04/27 07:51:08;;;;;;;7.78;4.88;;;;;;;29.10;20.88;94047.22;5101806;28;20040;-47
2021/04/27 07:53:34;;;;;;;7.45;5.45;;;;;;;28.47;22.18;94038.25;5077466;28;20052;-46
2021/04/27 07:56:01;;;;;;;10.60;8.85;;;;;;;29.75;20.26;94036.03;5074416;28;20354;-46
2021/04/27 07:58:28;;;;;;;10.80;6.78;;;;;;;28.54;21.62;94032.78;5075124;28;20459;-46
2021/04/27 08:00:55;;;;;;;10.98;6.40;;;;;;;29.27;20.58;94023.09;5096692;28;20052;-48
2021/04/27 08:03:22;;;;;;;7.68;5.35;;;;;;;29.74;20.12;94023.72;5075316;28;20052;-47
2021/04/27 08:05:49;;;;;;;8.95;5.05;;;;;;;29.15;21.21;94021.78;5081685;28;20045;-47
2021/04/27 08:08:16;;;;;;;6.68;4.97;;;;;;;29.19;21.17;94022.47;5098949;28;20055;-48
2021/04/27 08:10:43;;;;;;;7.72;5.22;;;;;;;30.40;19.99;94038.84;5101496;28;20050;-46
2021/04/27 08:13:10;;;;;;;12.65;6.72;;;;;;;30.72;20.07;94023.91;5085719;28;20037;-46
2021/04/27 08:15:37;;;;;;;7.10;4.75;;;;;;;29.81;20.57;94023.56;5057169;28;20052;-47
2021/04/27 08:18:05;;;;;;;8.02;5.28;;;;;;;29.90;20.07;94026.44;5074451;28;20041;-46
2021/04/27 08:20:33;;;;;;;8.45;5.28;;;;;;;30.41;19.50;94032.28;5096743;28;20043;-47
2021/04/27 08:23:00;;;;;;;6.20;4.88;;;;;;;30.16;20.01;94007.81;5094587;28;20047;-46
2021/04/27 08:25:28;;;;;;;8.13;4.68;;;;;;;29.36;20.90;94020.59;5081319;28;20055;-49
2021/04/27 08:27:55;;;;;;;6.03;4.85;;;;;;;30.11;19.98;94033.34;5083292;28;20048;-47
2021/04/27 08:30:24;;;;;;;8.18;5.20;;;;;;;30.10;20.13;94028.38;5098244;28;20051;-48
2021/04/27 08:32:54;;;;;;;8.38;4.47;;;;;;;29.85;19.90;94012.72;5105474;28;20346;-71
2021/04/27 08:35:21;;;;;;;6.95;4.30;;;;;;;31.97;17.77;94015.91;5105374;28;20044;-46
2021/04/27 08:37:48;;;;;;;5.72;4.65;;;;;;;30.28;19.21;94012.56;5080600;28;20377;-47
2021/04/27 08:40:17;;;;;;;6.28;4.55;;;;;;;29.68;20.43;94003.84;5094077;28;20442;-46
2021/04/27 08:42:48;;;;;;;7.45;4.78;;;;;;;29.50;20.25;93998.81;5097975;28;20051;-46
2021/04/27 08:45:16;;;;;;;8.32;5.22;;;;;;;30.07;20.00;94005.72;5095743;28;20496;-46
2021/04/27 08:47:44;;;;;;;8.38;5.10;;;;;;;30.05;19.97;93995.34;5085187;28;20048;-47
2021/04/27 08:50:14;;;;;;;9.00;5.57;;;;;;;29.55;20.37;93978.72;5090170;28;20048;-46
2021/04/27 08:52:43;;;;;;;63.20;44.78;;;;;;;30.18;19.82;93981.22;5104402;28;20508;-46
2021/04/27 08:55:10;;;;;;;31.90;21.65;;;;;;;29.76;19.87;93983.66;5097652;28;20055;-46
2021/04/27 08:57:37;;;;;;;24.95;17.45;;;;;;;29.86;19.79;93971.13;5084514;28;20056;-48
2021/04/27 09:00:08;;;;;;;12.40;8.45;;;;;;;30.10;19.52;93977.16;5087967;28;20048;-47
2021/04/27 09:02:36;;;;;;;11.10;6.60;;;;;;;30.65;18.91;93987.03;5097390;28;20055;-47
2021/04/27 09:05:04;;;;;;;11.60;5.85;;;;;;;31.02;18.12;93999.22;5077722;28;20049;-49
2021/04/27 09:07:42;;;;;;;9.65;5.55;;;;;;;30.74;18.83;93995.31;5077325;28;20048;-46
2021/04/27 09:10:15;;;;;;;14.00;5.20;;;;;;;30.03;19.52;93995.03;5095729;28;20082;-48
2021/04/27 09:12:50;;;;;;;10.68;5.68;;;;;;;30.29;19.26;94008.69;5088784;28;20052;-48
2021/04/27 09:15:23;;;;;;;7.93;5.60;;;;;;;29.93;19.41;94004.06;5084373;28;20477;-47
2021/04/27 09:17:50;;;;;;;9.10;5.05;;;;;;;29.69;20.07;94005.38;5076784;28;20057;-49
2021/04/27 09:20:17;;;;;;;56.17;41.30;;;;;;;29.83;19.50;94005.06;5095884;28;20052;-47
2021/04/27 09:22:45;;;;;;;12.23;8.98;;;;;;;29.83;19.66;94002.34;5090691;28;20047;-46
2021/04/27 09:25:13;;;;;;;10.35;7.18;;;;;;;29.28;20.27;93997.69;5082326;28;20493;-46
2021/04/27 09:27:47;;;;;;;9.90;6.43;;;;;;;29.44;19.83;93995.88;5084309;28;20370;-46
2021/04/27 09:30:16;;;;;;;10.45;7.03;;;;;;;29.29;20.22;93975.75;5095037;28;20063;-49
2021/04/27 09:32:53;;;;;;;11.10;5.75;;;;;;;29.40;20.27;93976.28;5104224;28;20055;-47
2021/04/27 09:35:30;;;;;;;9.40;5.88;;;;;;;28.97;20.52;93970.22;5104675;28;20051;-45
2021/04/27 09:38:09;;;;;;;12.25;5.45;;;;;;;29.28;20.72;93979.59;5096955;28;20047;-47
2021/04/27 09:40:55;;;;;;;10.90;5.22;;;;;;;30.51;19.02;93974.66;5103640;28;20048;-48
2021/04/27 09:43:25;;;;;;;11.32;5.25;;;;;;;29.90;20.08;93956.41;5104169;28;20048;-48
2021/04/27 09:45:53;;;;;;;7.45;5.30;;;;;;;29.76;20.41;93951.34;5096795;28;20052;-46
2021/04/27 09:48:40;;;;;;;8.18;5.40;;;;;;;28.95;20.41;93937.59;5097073;28;20110;-50
2021/04/27 09:51:13;;;;;;;11.82;5.72;;;;;;;29.12;20.70;93925.72;5096256;28;20047;-50
2021/04/27 09:53:48;;;;;;;10.88;5.65;;;;;;;28.85;21.00;93926.59;5094261;28;20048;-46
2021/04/27 09:56:34;;;;;;;10.68;4.85;;;;;;;29.66;19.94;93922.69;5076140;28;20055;-45
2021/04/27 09:59:02;;;;;;;11.05;5.70;;;;;;;29.23;20.32;93926.25;5083459;28;20466;-47
2021/04/27 10:01:30;;;;;;;10.57;5.70;;;;;;;29.29;20.19;93924.59;5096595;28;20051;-49
2021/04/27 10:03:57;;;;;;;7.85;5.10;;;;;;;29.24;20.41;93935.84;5096354;28;20048;-46
2021/04/27 10:06:25;;;;;;;12.00;5.40;;;;;;;29.26;20.06;93946.97;5103578;28;20054;-46
2021/04/27 10:08:52;;;;;;;8.75;5.30;;;;;;;30.73;18.53;93956.03;5095885;28;20048;-49
2021/04/27 10:11:20;;;;;;;10.15;5.53;;;;;;;29.64;20.31;93960.06;5089695;28;20067;-49
2021/04/27 10:13:47;;;;;;;8.13;5.13;;;;;;;29.82;20.42;93960.44;5083251;28;20049;-47
2021/04/27 10:16:14;;;;;;;9.60;4.95;;;;;;;29.05;20.97;93972.34;5065637;28;20055;-46
2021/04/27 10:18:42;;;;;;;8.02;5.35;;;;;;;29.12;20.82;93974.16;5075555;28;20473;-47
2021/04/27 10:21:11;;;;;;;9.40;5.35;;;;;;;29.54;20.33;93961.81;5081982;28;20437;-47
2021/04/27 10:23:40;;;;;;;8.48;5.07;;;;;;;29.67;20.45;93961.94;5078244;28;20047;-46
2021/04/27 10:26:08;;;;;;;7.90;4.72;;;;;;;29.53;19.98;93962.22;5095948;28;20055;-47
2021/04/27 10:29:08;;;;;;;10.52;5.30;;;;;;;28.71;21.18;93967.19;5085194;28;20052;-46
2021/04/27 10:31:41;;;;;;;7.43;4.70;;;;;;;29.32;20.48;93961.44;5098608;28;20052;-49
2021/04/27 10:34:17;;;;;;;6.35;4.88;;;;;;;28.95;20.98;93967.94;5083171;28;20371;-48
2021/04/27 10:36:50;;;;;;;11.98;4.85;;;;;;;29.50;20.24;93971.13;5082885;28;20040;-45
2021/04/27 10:39:39;;;;;;;7.18;5.13;;;;;;;28.93;20.60;93972.22;5083466;28;20442;-48
2021/04/27 10:42:35;;;;;;;10.63;5.40;;;;;;;28.80;20.56;93963.94;5092093;28;20040;-48
2021/04/27 10:45:05;;;;;;;12.50;8.02;;;;;;;28.90;20.60;93962.28;5035102;28;20079;-46
2021/04/27 10:47:43;;;;;;;15.35;10.50;;;;;;;29.24;20.43;93965.47;5082811;28;20052;-50
2021/04/27 10:50:25;;;;;;;7.93;5.57;;;;;;;28.58;20.89;93965.50;5090641;28;20058;-46
2021/04/27 10:52:52;;;;;;;;;;;;;;;28.30;21.28;93961.34;5102499;28;20052;-48
2021/04/27 10:55:30;;;;;;;9.45;4.95;;;;;;;28.91;20.35;93953.81;5095253;28;19911;-46
2021/04/27 10:58:00;;;;;;;10.77;5.43;;;;;;;28.77;20.93;93952.09;5095806;28;20048;-47
2021/04/27 11:00:35;;;;;;;8.45;5.22;;;;;;;30.80;18.59;93955.84;5077460;28;20073;-46
2021/04/27 11:03:28;;;;;;;7.70;4.45;;;;;;;29.18;20.63;93940.22;5102736;28;20042;-46
2021/04/27 11:06:06;;;;;;;9.82;5.25;;;;;;;28.40;21.46;93938.94;5073874;28;20378;-46
2021/04/27 11:08:46;;;;;;;8.20;5.10;;;;;;;28.66;20.58;93943.47;5094960;28;20103;-46
2021/04/27 11:11:33;;;;;;;8.45;4.63;;;;;;;28.86;20.57;93930.81;5101717;28;20047;-47
2021/04/27 11:14:12;;;;;;;10.32;4.78;;;;;;;29.90;19.96;93929.44;5094913;28;20064;-47
2021/04/27 11:16:41;;;;;;;7.55;4.90;;;;;;;31.20;18.38;93923.91;5102298;28;20048;-48
2021/04/27 11:19:20;;;;;;;8.57;5.43;;;;;;;29.05;21.67;93925.84;5102459;28;20043;-47
2021/04/27 11:21:49;;;;;;;9.20;6.55;;;;;;;30.97;19.52;93929.56;5098366;28;20051;-47
2021/04/27 11:24:40;;;;;;;9.18;5.82;;;;;;;29.97;20.71;93925.84;5097070;28;20052;-46
2021/04/27 11:27:22;;;;;;;8.00;5.68;;;;;;;30.79;19.50;93915.78;5096316;28;20060;-48
2021/04/27 11:29:53;;;;;;;;;;;;;;;29.10;21.61;93909.22;5091856;28;20477;-48
2021/04/27 11:32:20;;;;;;;41.22;28.50;;;;;;;29.82;20.73;93900.41;5094485;28;19927;-47
2021/04/27 11:34:52;;;;;;;14.93;9.43;;;;;;;29.36;21.07;93886.00;5090084;28;20048;-47
2021/04/27 11:37:24;;;;;;;14.18;10.00;;;;;;;30.28;20.13;93893.94;5081745;28;20347;-48
2021/04/27 11:39:51;;;;;;;;;;;;;;;30.32;19.79;93894.63;5082439;28;20049;-48
2021/04/27 11:42:29;;;;;;;8.27;5.20;;;;;;;29.76;21.10;93900.16;5074906;28;19916;-49
2021/04/27 11:44:59;;;;;;;10.20;4.60;;;;;;;29.52;19.81;93890.69;5094759;28;20052;-47
2021/04/27 11:47:31;;;;;;;7.47;4.60;;;;;;;30.00;19.43;93896.13;5102033;28;20055;-48
2021/04/27 11:49:59;;;;;;;7.93;4.00;;;;;;;29.68;19.09;93890.72;5102116;28;20040;-49
2021/04/27 11:52:36;;;;;;;4.82;3.45;;;;;;;29.29;18.85;93886.91;5101681;28;20056;-49